EDFM/MHG METAR and TAF weather

Enter ICAO airport designator
Station Type Date Time Source
EDFM METAR 2021/05/11 18:20 UTC NOAA

EDFM 111820Z 17004KT 130V200 9999 -RA BKN006 14/13 Q1009


Station Type Date Time Source
EDFM Decoded METAR 2021/05/11 18:20 UTC NOAA

Baden Wurttemberg, Neuostheim, Germany (EDFM) 49-28-21N 008-30-56E
May 11, 2021 - 02:20 PM EDT / 2021.05.11 1820 UTC
Wind: from the S (170 degrees) at 5 MPH (4 KT) (direction variable):0
Visibility: greater than 7 mile(s):0
Sky conditions: mostly cloudy
Weather: light rain
Temperature: 57 F (14 C)
Dew Point: 55 F (13 C)
Relative Humidity: 93%
Pressure (altimeter): 29.80 in. Hg (1009 hPa)
ob: EDFM 111820Z 17004KT 130V200 9999 -RA BKN006 14/13 Q1009
cycle: 18

Station Type Date Time Source
EDFM TAF 2012/03/06 06:30 UTC NOAA

TAF EDFM 060519Z 0606/0621 15004KT 9999 FEW040

Example: see airport list